sensor_id;sensor_type;location;lat;lon;timestamp;temperature;humidity
6443;DHT22;3254;47.372;8.512;2023-09-12T00:01:58;18.60;1.00
6443;DHT22;3254;47.372;8.512;2023-09-12T00:04:25;18.50;1.00
6443;DHT22;3254;47.372;8.512;2023-09-12T00:06:50;18.50;1.00
6443;DHT22;3254;47.372;8.512;2023-09-12T00:09:16;18.50;1.00
6443;DHT22;3254;47.372;8.512;2023-09-12T00:11:43;18.40;1.00
6443;DHT22;3254;47.372;8.512;2023-09-12T00:14:15;18.40;1.00
6443;DHT22;3254;47.372;8.512;2023-09-12T00:16:41;18.40;1.00
6443;DHT22;3254;47.372;8.512;2023-09-12T00:19:07;18.30;1.00
6443;DHT22;3254;47.372;8.512;2023-09-12T00:21:32;18.30;1.00
6443;DHT22;3254;47.372;8.512;2023-09-12T00:23:58;18.30;1.00
6443;DHT22;3254;47.372;8.512;2023-09-12T00:26:23;18.30;1.00
6443;DHT22;3254;47.372;8.512;2023-09-12T00:28:50;18.20;1.00
6443;DHT22;3254;47.372;8.512;2023-09-12T00:31:15;18.20;1.00
6443;DHT22;3254;47.372;8.512;2023-09-12T00:33:41;18.20;1.00
6443;DHT22;3254;47.372;8.512;2023-09-12T00:36:06;18.20;1.00
6443;DHT22;3254;47.372;8.512;2023-09-12T00:38:32;18.10;1.00
6443;DHT22;3254;47.372;8.512;2023-09-12T00:40:58;18.20;1.00
6443;DHT22;3254;47.372;8.512;2023-09-12T00:43:23;18.20;1.00
6443;DHT22;3254;47.372;8.512;2023-09-12T00:45:49;18.20;1.00
6443;DHT22;3254;47.372;8.512;2023-09-12T00:48:16;18.10;1.00
6443;DHT22;3254;47.372;8.512;2023-09-12T00:50:43;18.10;1.00
6443;DHT22;3254;47.372;8.512;2023-09-12T00:53:09;18.20;1.00
6443;DHT22;3254;47.372;8.512;2023-09-12T00:55:37;18.20;1.00
6443;DHT22;3254;47.372;8.512;2023-09-12T00:58:05;18.20;1.00
6443;DHT22;3254;47.372;8.512;2023-09-12T01:00:33;18.20;1.00
6443;DHT22;3254;47.372;8.512;2023-09-12T01:02:59;18.10;1.00
6443;DHT22;3254;47.372;8.512;2023-09-12T01:05:24;17.90;1.00
6443;DHT22;3254;47.372;8.512;2023-09-12T01:07:50;17.90;1.00
6443;DHT22;3254;47.372;8.512;2023-09-12T01:10:18;17.90;1.00
6443;DHT22;3254;47.372;8.512;2023-09-12T01:12:45;17.80;1.00
6443;DHT22;3254;47.372;8.512;2023-09-12T01:15:12;17.80;1.00
6443;DHT22;3254;47.372;8.512;2023-09-12T01:17:42;17.90;1.00
6443;DHT22;3254;47.372;8.512;2023-09-12T01:20:17;17.80;1.00
6443;DHT22;3254;47.372;8.512;2023-09-12T01:26:22;17.80;1.00
6443;DHT22;3254;47.372;8.512;2023-09-12T01:28:51;17.70;1.00
6443;DHT22;3254;47.372;8.512;2023-09-12T01:31:22;17.60;1.00
6443;DHT22;3254;47.372;8.512;2023-09-12T01:33:49;17.80;1.00
6443;DHT22;3254;47.372;8.512;2023-09-12T01:36:16;17.80;1.00
6443;DHT22;3254;47.372;8.512;2023-09-12T01:38:41;17.70;1.00
6443;DHT22;3254;47.372;8.512;2023-09-12T01:41:07;17.60;1.00
6443;DHT22;3254;47.372;8.512;2023-09-12T01:43:36;17.50;2.70
6443;DHT22;3254;47.372;8.512;2023-09-12T01:46:06;17.40;7.00
6443;DHT22;3254;47.372;8.512;2023-09-12T01:48:34;17.40;9.70
6443;DHT22;3254;47.372;8.512;2023-09-12T01:51:05;17.30;11.80
6443;DHT22;3254;47.372;8.512;2023-09-12T01:53:33;17.40;13.50
6443;DHT22;3254;47.372;8.512;2023-09-12T01:56:01;17.50;13.70
6443;DHT22;3254;47.372;8.512;2023-09-12T01:58:26;17.40;15.00
6443;DHT22;3254;47.372;8.512;2023-09-12T02:00:52;17.40;17.30
6443;DHT22;3254;47.372;8.512;2023-09-12T02:03:19;17.50;17.20
6443;DHT22;3254;47.372;8.512;2023-09-12T02:05:46;17.40;17.40
6443;DHT22;3254;47.372;8.512;2023-09-12T02:08:12;17.40;17.90
6443;DHT22;3254;47.372;8.512;2023-09-12T02:10:37;17.30;18.10
6443;DHT22;3254;47.372;8.512;2023-09-12T02:13:03;17.30;19.50
6443;DHT22;3254;47.372;8.512;2023-09-12T02:15:29;17.30;21.10
6443;DHT22;3254;47.372;8.512;2023-09-12T02:17:54;17.40;21.30
6443;DHT22;3254;47.372;8.512;2023-09-12T02:20:20;17.30;22.50
6443;DHT22;3254;47.372;8.512;2023-09-12T02:22:46;17.20;23.70
6443;DHT22;3254;47.372;8.512;2023-09-12T02:25:12;17.20;26.40
6443;DHT22;3254;47.372;8.512;2023-09-12T02:27:37;17.30;27.00
6443;DHT22;3254;47.372;8.512;2023-09-12T02:30:03;17.30;24.50
6443;DHT22;3254;47.372;8.512;2023-09-12T02:32:29;17.30;25.10
6443;DHT22;3254;47.372;8.512;2023-09-12T02:34:56;17.30;24.80
6443;DHT22;3254;47.372;8.512;2023-09-12T02:37:22;17.20;25.90
6443;DHT22;3254;47.372;8.512;2023-09-12T02:39:49;17.30;26.20
6443;DHT22;3254;47.372;8.512;2023-09-12T02:42:15;17.30;27.30
6443;DHT22;3254;47.372;8.512;2023-09-12T02:44:40;17.20;27.10
6443;DHT22;3254;47.372;8.512;2023-09-12T02:47:07;17.20;28.00
6443;DHT22;3254;47.372;8.512;2023-09-12T02:49:33;17.10;29.90
6443;DHT22;3254;47.372;8.512;2023-09-12T02:52:00;17.10;32.30
6443;DHT22;3254;47.372;8.512;2023-09-12T02:54:25;17.10;33.60
6443;DHT22;3254;47.372;8.512;2023-09-12T02:56:55;17.00;35.50
6443;DHT22;3254;47.372;8.512;2023-09-12T02:59:22;17.00;39.40
6443;DHT22;3254;47.372;8.512;2023-09-12T03:01:54;17.00;38.10
6443;DHT22;3254;47.372;8.512;2023-09-12T03:04:21;16.90;39.60
6443;DHT22;3254;47.372;8.512;2023-09-12T03:06:47;16.80;41.40
6443;DHT22;3254;47.372;8.512;2023-09-12T03:09:13;16.70;47.60
6443;DHT22;3254;47.372;8.512;2023-09-12T03:11:39;16.70;52.40
6443;DHT22;3254;47.372;8.512;2023-09-12T03:14:06;16.80;54.00
6443;DHT22;3254;47.372;8.512;2023-09-12T03:16:33;16.80;57.20
6443;DHT22;3254;47.372;8.512;2023-09-12T03:18:58;16.80;55.70
6443;DHT22;3254;47.372;8.512;2023-09-12T03:21:27;16.90;54.80
6443;DHT22;3254;47.372;8.512;2023-09-12T03:23:53;17.00;51.30
6443;DHT22;3254;47.372;8.512;2023-09-12T03:26:19;16.90;53.30
6443;DHT22;3254;47.372;8.512;2023-09-12T03:28:45;17.00;52.40
6443;DHT22;3254;47.372;8.512;2023-09-12T03:31:13;16.90;52.70
6443;DHT22;3254;47.372;8.512;2023-09-12T03:33:40;17.00;52.00
6443;DHT22;3254;47.372;8.512;2023-09-12T03:36:06;16.90;50.00
6443;DHT22;3254;47.372;8.512;2023-09-12T03:38:34;16.90;54.00
6443;DHT22;3254;47.372;8.512;2023-09-12T03:41:00;16.90;52.90
6443;DHT22;3254;47.372;8.512;2023-09-12T03:43:26;16.90;53.60
6443;DHT22;3254;47.372;8.512;2023-09-12T03:45:51;16.80;52.70
6443;DHT22;3254;47.372;8.512;2023-09-12T03:48:19;16.80;54.10
6443;DHT22;3254;47.372;8.512;2023-09-12T03:50:45;16.80;55.00
6443;DHT22;3254;47.372;8.512;2023-09-12T03:53:13;16.90;54.50
6443;DHT22;3254;47.372;8.512;2023-09-12T03:55:39;16.90;51.40
6443;DHT22;3254;47.372;8.512;2023-09-12T03:58:05;16.90;50.90
6443;DHT22;3254;47.372;8.512;2023-09-12T04:00:30;16.90;51.60
6443;DHT22;3254;47.372;8.512;2023-09-12T04:02:56;16.90;51.00
6443;DHT22;3254;47.372;8.512;2023-09-12T04:05:22;17.00;51.50
6443;DHT22;3254;47.372;8.512;2023-09-12T04:07:50;17.10;48.20
6443;DHT22;3254;47.372;8.512;2023-09-12T04:10:15;17.00;47.90
6443;DHT22;3254;47.372;8.512;2023-09-12T04:12:43;17.00;47.90
6443;DHT22;3254;47.372;8.512;2023-09-12T04:15:09;16.90;48.80
6443;DHT22;3254;47.372;8.512;2023-09-12T04:17:35;16.90;50.50
6443;DHT22;3254;47.372;8.512;2023-09-12T04:20:00;16.90;51.50
6443;DHT22;3254;47.372;8.512;2023-09-12T04:22:26;17.00;50.40
6443;DHT22;3254;47.372;8.512;2023-09-12T04:24:55;17.00;48.20
6443;DHT22;3254;47.372;8.512;2023-09-12T04:27:20;17.10;49.00
6443;DHT22;3254;47.372;8.512;2023-09-12T04:29:46;17.00;48.00
6443;DHT22;3254;47.372;8.512;2023-09-12T04:32:12;17.00;48.00
6443;DHT22;3254;47.372;8.512;2023-09-12T04:34:37;17.00;49.70
6443;DHT22;3254;47.372;8.512;2023-09-12T04:37:04;17.10;46.80
6443;DHT22;3254;47.372;8.512;2023-09-12T04:39:31;17.10;44.00
6443;DHT22;3254;47.372;8.512;2023-09-12T04:42:00;17.10;43.90
6443;DHT22;3254;47.372;8.512;2023-09-12T04:44:27;17.10;43.20
6443;DHT22;3254;47.372;8.512;2023-09-12T04:46:53;17.00;43.20
6443;DHT22;3254;47.372;8.512;2023-09-12T04:49:21;16.90;45.90
6443;DHT22;3254;47.372;8.512;2023-09-12T04:51:47;16.90;48.20
6443;DHT22;3254;47.372;8.512;2023-09-12T04:54:13;16.90;48.00
6443;DHT22;3254;47.372;8.512;2023-09-12T04:56:39;17.00;48.00
6443;DHT22;3254;47.372;8.512;2023-09-12T04:59:05;16.90;48.00
6443;DHT22;3254;47.372;8.512;2023-09-12T05:01:33;16.90;47.10
6443;DHT22;3254;47.372;8.512;2023-09-12T05:04:00;16.80;50.50
6443;DHT22;3254;47.372;8.512;2023-09-12T05:06:26;16.80;53.00
6443;DHT22;3254;47.372;8.512;2023-09-12T05:08:54;16.80;53.30
6443;DHT22;3254;47.372;8.512;2023-09-12T05:11:21;16.90;52.40
6443;DHT22;3254;47.372;8.512;2023-09-12T05:13:49;16.90;52.70
6443;DHT22;3254;47.372;8.512;2023-09-12T05:16:16;16.90;53.70
6443;DHT22;3254;47.372;8.512;2023-09-12T05:18:41;16.90;52.20
6443;DHT22;3254;47.372;8.512;2023-09-12T05:21:07;17.00;51.10
6443;DHT22;3254;47.372;8.512;2023-09-12T05:23:32;17.00;50.20
6443;DHT22;3254;47.372;8.512;2023-09-12T05:25:58;17.10;50.40
6443;DHT22;3254;47.372;8.512;2023-09-12T05:28:24;17.10;52.00
6443;DHT22;3254;47.372;8.512;2023-09-12T05:30:50;17.20;50.80
6443;DHT22;3254;47.372;8.512;2023-09-12T05:33:16;17.10;49.10
6443;DHT22;3254;47.372;8.512;2023-09-12T05:35:42;17.20;49.30
6443;DHT22;3254;47.372;8.512;2023-09-12T05:38:11;17.20;49.20
6443;DHT22;3254;47.372;8.512;2023-09-12T05:40:36;17.30;47.20
6443;DHT22;3254;47.372;8.512;2023-09-12T05:43:02;17.20;46.20
6443;DHT22;3254;47.372;8.512;2023-09-12T05:45:30;17.10;48.80
6443;DHT22;3254;47.372;8.512;2023-09-12T05:47:59;17.10;50.90
6443;DHT22;3254;47.372;8.512;2023-09-12T05:50:24;17.20;51.10
6443;DHT22;3254;47.372;8.512;2023-09-12T05:52:51;17.30;48.70
6443;DHT22;3254;47.372;8.512;2023-09-12T05:55:18;17.40;45.70
6443;DHT22;3254;47.372;8.512;2023-09-12T05:57:44;17.50;42.90
6443;DHT22;3254;47.372;8.512;2023-09-12T06:00:10;17.60;40.50
6443;DHT22;3254;47.372;8.512;2023-09-12T06:02:40;17.70;39.20
6443;DHT22;3254;47.372;8.512;2023-09-12T06:05:07;17.70;36.50
6443;DHT22;3254;47.372;8.512;2023-09-12T06:07:34;17.80;34.70
6443;DHT22;3254;47.372;8.512;2023-09-12T06:10:02;17.80;35.20
6443;DHT22;3254;47.372;8.512;2023-09-12T06:12:30;17.80;35.50
6443;DHT22;3254;47.372;8.512;2023-09-12T06:14:58;17.80;34.50
6443;DHT22;3254;47.372;8.512;2023-09-12T06:17:27;17.90;31.60
6443;DHT22;3254;47.372;8.512;2023-09-12T06:19:54;18.00;30.00
6443;DHT22;3254;47.372;8.512;2023-09-12T06:22:20;18.10;28.40
6443;DHT22;3254;47.372;8.512;2023-09-12T06:24:46;18.10;27.50
6443;DHT22;3254;47.372;8.512;2023-09-12T06:27:12;18.30;25.80
6443;DHT22;3254;47.372;8.512;2023-09-12T06:29:46;18.40;24.30
6443;DHT22;3254;47.372;8.512;2023-09-12T06:32:17;18.50;22.10
6443;DHT22;3254;47.372;8.512;2023-09-12T06:34:43;18.60;20.30
6443;DHT22;3254;47.372;8.512;2023-09-12T06:37:10;18.80;17.90
6443;DHT22;3254;47.372;8.512;2023-09-12T06:39:37;19.00;14.80
6443;DHT22;3254;47.372;8.512;2023-09-12T06:42:03;19.20;11.50
6443;DHT22;3254;47.372;8.512;2023-09-12T06:44:29;19.30;9.30
6443;DHT22;3254;47.372;8.512;2023-09-12T06:46:54;19.30;6.80
6443;DHT22;3254;47.372;8.512;2023-09-12T06:49:20;19.40;4.00
6443;DHT22;3254;47.372;8.512;2023-09-12T06:51:47;19.60;1.00
6443;DHT22;3254;47.372;8.512;2023-09-12T06:54:13;19.60;1.00
6443;DHT22;3254;47.372;8.512;2023-09-12T06:56:40;19.70;1.00
6443;DHT22;3254;47.372;8.512;2023-09-12T06:59:09;19.80;1.00
6443;DHT22;3254;47.372;8.512;2023-09-12T07:01:35;19.90;1.00
6443;DHT22;3254;47.372;8.512;2023-09-12T07:04:01;20.20;1.00
6443;DHT22;3254;47.372;8.512;2023-09-12T07:06:28;20.40;1.00
6443;DHT22;3254;47.372;8.512;2023-09-12T07:08:54;20.80;1.00
6443;DHT22;3254;47.372;8.512;2023-09-12T07:11:19;21.00;1.00
6443;DHT22;3254;47.372;8.512;2023-09-12T07:13:45;21.20;1.00
6443;DHT22;3254;47.372;8.512;2023-09-12T07:16:11;21.40;1.00
6443;DHT22;3254;47.372;8.512;2023-09-12T07:18:37;21.50;1.00
6443;DHT22;3254;47.372;8.512;2023-09-12T07:21:04;21.70;1.00
6443;DHT22;3254;47.372;8.512;2023-09-12T07:23:31;21.90;1.00
6443;DHT22;3254;47.372;8.512;2023-09-12T07:25:57;22.00;1.00
6443;DHT22;3254;47.372;8.512;2023-09-12T07:28:26;21.90;1.00
6443;DHT22;3254;47.372;8.512;2023-09-12T07:30:53;22.00;1.00
6443;DHT22;3254;47.372;8.512;2023-09-12T07:33:19;22.40;1.00
6443;DHT22;3254;47.372;8.512;2023-09-12T07:35:48;23.00;1.00
6443;DHT22;3254;47.372;8.512;2023-09-12T07:38:13;23.50;1.00
6443;DHT22;3254;47.372;8.512;2023-09-12T07:40:42;24.40;1.00
6443;DHT22;3254;47.372;8.512;2023-09-12T07:43:08;25.20;1.00
6443;DHT22;3254;47.372;8.512;2023-09-12T07:45:35;25.90;1.00
6443;DHT22;3254;47.372;8.512;2023-09-12T07:48:10;26.40;1.00
6443;DHT22;3254;47.372;8.512;2023-09-12T07:50:36;26.80;1.00
6443;DHT22;3254;47.372;8.512;2023-09-12T07:53:04;27.20;1.00
6443;DHT22;3254;47.372;8.512;2023-09-12T07:55:30;27.40;1.00
6443;DHT22;3254;47.372;8.512;2023-09-12T07:58:02;28.00;1.00
6443;DHT22;3254;47.372;8.512;2023-09-12T08:00:27;27.80;1.00
6443;DHT22;3254;47.372;8.512;2023-09-12T08:02:53;27.90;1.00
6443;DHT22;3254;47.372;8.512;2023-09-12T08:05:18;28.30;1.00
6443;DHT22;3254;47.372;8.512;2023-09-12T08:07:44;28.10;1.00
6443;DHT22;3254;47.372;8.512;2023-09-12T08:10:10;27.70;1.00
6443;DHT22;3254;47.372;8.512;2023-09-12T08:12:36;27.40;1.00
6443;DHT22;3254;47.372;8.512;2023-09-12T08:15:05;27.40;1.00
6443;DHT22;3254;47.372;8.512;2023-09-12T08:17:31;27.40;1.00
6443;DHT22;3254;47.372;8.512;2023-09-12T08:19:57;27.20;1.00
6443;DHT22;3254;47.372;8.512;2023-09-12T08:22:23;27.00;1.00
6443;DHT22;3254;47.372;8.512;2023-09-12T08:24:49;27.50;1.00
6443;DHT22;3254;47.372;8.512;2023-09-12T08:27:15;27.60;1.00
6443;DHT22;3254;47.372;8.512;2023-09-12T08:29:43;27.80;1.00
6443;DHT22;3254;47.372;8.512;2023-09-12T08:32:14;28.10;1.00
6443;DHT22;3254;47.372;8.512;2023-09-12T08:34:41;28.90;1.00
6443;DHT22;3254;47.372;8.512;2023-09-12T08:37:07;29.30;1.00
6443;DHT22;3254;47.372;8.512;2023-09-12T08:39:44;29.60;1.00
6443;DHT22;3254;47.372;8.512;2023-09-12T08:42:13;30.00;1.00
6443;DHT22;3254;47.372;8.512;2023-09-12T08:44:40;29.80;1.00
6443;DHT22;3254;47.372;8.512;2023-09-12T08:47:09;29.60;1.00
6443;DHT22;3254;47.372;8.512;2023-09-12T08:49:38;29.10;1.00
6443;DHT22;3254;47.372;8.512;2023-09-12T08:52:06;29.20;1.00
6443;DHT22;3254;47.372;8.512;2023-09-12T08:54:32;29.30;1.00
6443;DHT22;3254;47.372;8.512;2023-09-12T08:57:05;29.60;1.00
6443;DHT22;3254;47.372;8.512;2023-09-12T08:59:33;30.00;1.00
6443;DHT22;3254;47.372;8.512;2023-09-12T09:02:03;30.70;1.00
6443;DHT22;3254;47.372;8.512;2023-09-12T09:04:32;31.70;1.00
6443;DHT22;3254;47.372;8.512;2023-09-12T09:07:00;31.90;1.00
6443;DHT22;3254;47.372;8.512;2023-09-12T09:09:31;32.10;1.00
6443;DHT22;3254;47.372;8.512;2023-09-12T09:11:58;32.70;1.00
6443;DHT22;3254;47.372;8.512;2023-09-12T09:14:29;33.70;1.00
6443;DHT22;3254;47.372;8.512;2023-09-12T09:16:58;34.60;1.00
6443;DHT22;3254;47.372;8.512;2023-09-12T09:19:40;34.90;1.00
6443;DHT22;3254;47.372;8.512;2023-09-12T09:22:06;34.10;1.00
6443;DHT22;3254;47.372;8.512;2023-09-12T09:24:33;34.00;1.00
6443;DHT22;3254;47.372;8.512;2023-09-12T09:26:59;34.00;1.00
6443;DHT22;3254;47.372;8.512;2023-09-12T09:29:27;34.60;1.00
6443;DHT22;3254;47.372;8.512;2023-09-12T09:32:00;35.20;1.00
6443;DHT22;3254;47.372;8.512;2023-09-12T09:34:27;35.70;1.00
6443;DHT22;3254;47.372;8.512;2023-09-12T09:36:56;36.30;1.00
6443;DHT22;3254;47.372;8.512;2023-09-12T09:39:27;37.10;1.00
6443;DHT22;3254;47.372;8.512;2023-09-12T09:41:57;37.40;1.00
6443;DHT22;3254;47.372;8.512;2023-09-12T09:44:27;36.90;1.00
6443;DHT22;3254;47.372;8.512;2023-09-12T09:46:59;35.80;1.00
6443;DHT22;3254;47.372;8.512;2023-09-12T09:49:26;34.40;1.00
6443;DHT22;3254;47.372;8.512;2023-09-12T09:51:54;33.70;1.00
6443;DHT22;3254;47.372;8.512;2023-09-12T09:54:26;33.80;1.00
6443;DHT22;3254;47.372;8.512;2023-09-12T09:56:57;34.90;1.00
6443;DHT22;3254;47.372;8.512;2023-09-12T09:59:28;35.60;1.00
6443;DHT22;3254;47.372;8.512;2023-09-12T10:01:57;36.00;1.00
6443;DHT22;3254;47.372;8.512;2023-09-12T10:04:25;35.30;1.00
6443;DHT22;3254;47.372;8.512;2023-09-12T10:06:55;35.60;1.00
6443;DHT22;3254;47.372;8.512;2023-09-12T10:09:25;35.80;1.00
6443;DHT22;3254;47.372;8.512;2023-09-12T10:11:52;36.30;1.00
6443;DHT22;3254;47.372;8.512;2023-09-12T10:14:22;35.80;1.00
6443;DHT22;3254;47.372;8.512;2023-09-12T10:16:49;35.70;1.00
6443;DHT22;3254;47.372;8.512;2023-09-12T10:19:18;35.60;1.00
6443;DHT22;3254;47.372;8.512;2023-09-12T10:22:08;35.90;1.00
6443;DHT22;3254;47.372;8.512;2023-09-12T10:24:35;36.30;1.00
6443;DHT22;3254;47.372;8.512;2023-09-12T10:27:02;37.00;1.00
6443;DHT22;3254;47.372;8.512;2023-09-12T10:29:29;38.00;1.00
6443;DHT22;3254;47.372;8.512;2023-09-12T10:32:01;38.50;1.00
6443;DHT22;3254;47.372;8.512;2023-09-12T10:34:27;39.00;1.00
6443;DHT22;3254;47.372;8.512;2023-09-12T10:36:59;39.10;1.00
6443;DHT22;3254;47.372;8.512;2023-09-12T10:39:32;39.00;1.00
6443;DHT22;3254;47.372;8.512;2023-09-12T10:41:59;38.50;1.00
6443;DHT22;3254;47.372;8.512;2023-09-12T10:44:25;39.20;1.00
6443;DHT22;3254;47.372;8.512;2023-09-12T10:46:52;39.60;1.00
6443;DHT22;3254;47.372;8.512;2023-09-12T10:49:34;39.90;1.00
6443;DHT22;3254;47.372;8.512;2023-09-12T10:52:00;39.80;1.00
6443;DHT22;3254;47.372;8.512;2023-09-12T10:54:52;40.10;1.00
6443;DHT22;3254;47.372;8.512;2023-09-12T10:57:19;40.50;1.00
6443;DHT22;3254;47.372;8.512;2023-09-12T11:02:42;41.20;1.00
6443;DHT22;3254;47.372;8.512;2023-09-12T11:08:02;41.10;1.00
6443;DHT22;3254;47.372;8.512;2023-09-12T11:10:30;41.20;1.00
6443;DHT22;3254;47.372;8.512;2023-09-12T11:12:57;41.50;1.00
6443;DHT22;3254;47.372;8.512;2023-09-12T11:15:25;42.00;1.00
6443;DHT22;3254;47.372;8.512;2023-09-12T11:18:11;42.50;1.00
6443;DHT22;3254;47.372;8.512;2023-09-12T11:20:53;41.50;1.00
6443;DHT22;3254;47.372;8.512;2023-09-12T11:23:24;41.00;1.00
6443;DHT22;3254;47.372;8.512;2023-09-12T11:26:03;40.50;1.00
6443;DHT22;3254;47.372;8.512;2023-09-12T11:28:31;40.30;1.00
6443;DHT22;3254;47.372;8.512;2023-09-12T11:30:57;40.50;1.00
6443;DHT22;3254;47.372;8.512;2023-09-12T11:33:24;40.80;1.00
6443;DHT22;3254;47.372;8.512;2023-09-12T11:35:52;41.30;1.00
6443;DHT22;3254;47.372;8.512;2023-09-12T11:38:27;41.60;1.00
6443;DHT22;3254;47.372;8.512;2023-09-12T11:40:53;42.20;1.00
6443;DHT22;3254;47.372;8.512;2023-09-12T11:43:25;42.50;1.00
6443;DHT22;3254;47.372;8.512;2023-09-12T11:45:51;42.40;1.00
6443;DHT22;3254;47.372;8.512;2023-09-12T11:48:17;42.10;1.00
6443;DHT22;3254;47.372;8.512;2023-09-12T11:50:49;41.70;1.00
6443;DHT22;3254;47.372;8.512;2023-09-12T11:53:20;41.80;1.00
6443;DHT22;3254;47.372;8.512;2023-09-12T11:55:48;42.00;1.00
6443;DHT22;3254;47.372;8.512;2023-09-12T11:58:17;42.50;1.00
6443;DHT22;3254;47.372;8.512;2023-09-12T12:00:48;42.90;1.00
6443;DHT22;3254;47.372;8.512;2023-09-12T12:03:15;42.90;1.00
6443;DHT22;3254;47.372;8.512;2023-09-12T12:05:41;43.00;1.00
6443;DHT22;3254;47.372;8.512;2023-09-12T12:08:09;42.40;1.00
6443;DHT22;3254;47.372;8.512;2023-09-12T12:10:35;42.10;1.00
6443;DHT22;3254;47.372;8.512;2023-09-12T12:13:03;43.10;1.00
6443;DHT22;3254;47.372;8.512;2023-09-12T12:15:30;43.20;1.00
6443;DHT22;3254;47.372;8.512;2023-09-12T12:17:56;43.40;1.00
6443;DHT22;3254;47.372;8.512;2023-09-12T12:20:22;42.90;1.00
6443;DHT22;3254;47.372;8.512;2023-09-12T12:22:48;41.80;1.00
6443;DHT22;3254;47.372;8.512;2023-09-12T12:25:17;41.20;1.00
6443;DHT22;3254;47.372;8.512;2023-09-12T12:27:42;40.10;1.00
6443;DHT22;3254;47.372;8.512;2023-09-12T12:30:10;39.50;1.00
6443;DHT22;3254;47.372;8.512;2023-09-12T12:32:43;38.60;1.00
6443;DHT22;3254;47.372;8.512;2023-09-12T12:35:21;38.30;1.00
6443;DHT22;3254;47.372;8.512;2023-09-12T12:37:51;37.90;1.00
6443;DHT22;3254;47.372;8.512;2023-09-12T12:40:17;38.50;1.00
6443;DHT22;3254;47.372;8.512;2023-09-12T12:42:44;38.90;1.00
6443;DHT22;3254;47.372;8.512;2023-09-12T12:45:20;39.50;1.00
6443;DHT22;3254;47.372;8.512;2023-09-12T12:47:46;40.50;1.00
6443;DHT22;3254;47.372;8.512;2023-09-12T12:50:15;41.90;1.00
6443;DHT22;3254;47.372;8.512;2023-09-12T12:52:43;42.30;1.00
6443;DHT22;3254;47.372;8.512;2023-09-12T12:55:12;41.90;1.00
6443;DHT22;3254;47.372;8.512;2023-09-12T12:57:39;42.00;1.00
6443;DHT22;3254;47.372;8.512;2023-09-12T13:00:07;42.00;1.00
6443;DHT22;3254;47.372;8.512;2023-09-12T13:02:38;41.80;1.00
6443;DHT22;3254;47.372;8.512;2023-09-12T13:05:06;40.40;1.00
6443;DHT22;3254;47.372;8.512;2023-09-12T13:07:34;38.20;1.00
6443;DHT22;3254;47.372;8.512;2023-09-12T13:10:02;37.60;1.00
6443;DHT22;3254;47.372;8.512;2023-09-12T13:12:30;37.50;1.00
6443;DHT22;3254;47.372;8.512;2023-09-12T13:14:55;37.00;1.00
6443;DHT22;3254;47.372;8.512;2023-09-12T13:17:23;36.80;1.00
6443;DHT22;3254;47.372;8.512;2023-09-12T13:19:49;36.40;1.00
6443;DHT22;3254;47.372;8.512;2023-09-12T13:22:14;35.50;1.00
6443;DHT22;3254;47.372;8.512;2023-09-12T13:24:40;34.60;1.00
6443;DHT22;3254;47.372;8.512;2023-09-12T13:27:05;33.80;1.00
6443;DHT22;3254;47.372;8.512;2023-09-12T13:29:32;33.50;1.00
6443;DHT22;3254;47.372;8.512;2023-09-12T13:31:58;32.90;1.00
6443;DHT22;3254;47.372;8.512;2023-09-12T13:34:23;32.40;1.00
6443;DHT22;3254;47.372;8.512;2023-09-12T13:36:49;31.90;1.00
6443;DHT22;3254;47.372;8.512;2023-09-12T13:39:14;31.50;1.00
6443;DHT22;3254;47.372;8.512;2023-09-12T13:41:43;31.70;1.00
6443;DHT22;3254;47.372;8.512;2023-09-12T13:44:10;32.70;1.00
6443;DHT22;3254;47.372;8.512;2023-09-12T13:46:36;33.60;1.00
6443;DHT22;3254;47.372;8.512;2023-09-12T13:49:04;33.40;1.00
6443;DHT22;3254;47.372;8.512;2023-09-12T13:51:30;33.20;1.00
6443;DHT22;3254;47.372;8.512;2023-09-12T13:53:55;32.70;1.00
6443;DHT22;3254;47.372;8.512;2023-09-12T13:56:21;32.90;1.00
6443;DHT22;3254;47.372;8.512;2023-09-12T13:58:47;33.60;1.00
6443;DHT22;3254;47.372;8.512;2023-09-12T14:01:12;33.00;1.00
6443;DHT22;3254;47.372;8.512;2023-09-12T14:03:38;31.90;1.00
6443;DHT22;3254;47.372;8.512;2023-09-12T14:06:03;31.50;1.00
6443;DHT22;3254;47.372;8.512;2023-09-12T14:08:30;31.40;1.00
6443;DHT22;3254;47.372;8.512;2023-09-12T14:10:57;31.10;1.00
6443;DHT22;3254;47.372;8.512;2023-09-12T14:13:23;30.70;1.00
6443;DHT22;3254;47.372;8.512;2023-09-12T14:15:49;30.60;1.00
6443;DHT22;3254;47.372;8.512;2023-09-12T14:18:19;30.20;1.00
6443;DHT22;3254;47.372;8.512;2023-09-12T14:20:44;30.70;1.00
6443;DHT22;3254;47.372;8.512;2023-09-12T14:23:13;31.00;1.00
6443;DHT22;3254;47.372;8.512;2023-09-12T14:25:38;30.70;1.00
6443;DHT22;3254;47.372;8.512;2023-09-12T14:28:04;30.40;1.00
6443;DHT22;3254;47.372;8.512;2023-09-12T14:30:33;30.00;1.00
6443;DHT22;3254;47.372;8.512;2023-09-12T14:33:03;29.80;1.00
6443;DHT22;3254;47.372;8.512;2023-09-12T14:35:30;29.50;1.00
6443;DHT22;3254;47.372;8.512;2023-09-12T14:37:56;29.50;1.00
6443;DHT22;3254;47.372;8.512;2023-09-12T14:40:21;30.30;1.00
6443;DHT22;3254;47.372;8.512;2023-09-12T14:42:47;31.40;1.00
6443;DHT22;3254;47.372;8.512;2023-09-12T14:45:18;33.00;1.00
6443;DHT22;3254;47.372;8.512;2023-09-12T14:47:43;33.70;1.00
6443;DHT22;3254;47.372;8.512;2023-09-12T14:50:09;33.70;1.00
6443;DHT22;3254;47.372;8.512;2023-09-12T14:52:34;33.70;1.00
6443;DHT22;3254;47.372;8.512;2023-09-12T14:55:00;33.10;1.00
6443;DHT22;3254;47.372;8.512;2023-09-12T14:57:29;33.30;1.00
6443;DHT22;3254;47.372;8.512;2023-09-12T14:59:54;34.10;1.00
6443;DHT22;3254;47.372;8.512;2023-09-12T15:02:23;33.10;1.00
6443;DHT22;3254;47.372;8.512;2023-09-12T15:04:49;31.60;1.00
6443;DHT22;3254;47.372;8.512;2023-09-12T15:07:16;32.10;1.00
6443;DHT22;3254;47.372;8.512;2023-09-12T15:09:43;32.20;1.00
6443;DHT22;3254;47.372;8.512;2023-09-12T15:12:08;32.30;1.00
6443;DHT22;3254;47.372;8.512;2023-09-12T15:14:35;31.90;1.00
6443;DHT22;3254;47.372;8.512;2023-09-12T15:17:05;31.00;1.00
6443;DHT22;3254;47.372;8.512;2023-09-12T15:19:30;31.50;1.00
6443;DHT22;3254;47.372;8.512;2023-09-12T15:21:59;30.80;1.00
6443;DHT22;3254;47.372;8.512;2023-09-12T15:24:24;30.60;1.00
6443;DHT22;3254;47.372;8.512;2023-09-12T15:26:52;29.90;1.00
6443;DHT22;3254;47.372;8.512;2023-09-12T15:29:17;29.20;1.00
6443;DHT22;3254;47.372;8.512;2023-09-12T15:31:48;29.10;1.00
6443;DHT22;3254;47.372;8.512;2023-09-12T15:34:14;28.60;1.00
6443;DHT22;3254;47.372;8.512;2023-09-12T15:36:46;28.20;1.00
6443;DHT22;3254;47.372;8.512;2023-09-12T15:39:12;28.10;1.00
6443;DHT22;3254;47.372;8.512;2023-09-12T15:41:40;27.80;1.00
6443;DHT22;3254;47.372;8.512;2023-09-12T15:44:06;27.90;1.00
6443;DHT22;3254;47.372;8.512;2023-09-12T15:46:33;27.90;1.00
6443;DHT22;3254;47.372;8.512;2023-09-12T15:48:59;27.80;1.00
6443;DHT22;3254;47.372;8.512;2023-09-12T15:51:25;27.80;1.00
6443;DHT22;3254;47.372;8.512;2023-09-12T15:53:51;28.50;1.00
6443;DHT22;3254;47.372;8.512;2023-09-12T15:56:20;29.10;1.00
6443;DHT22;3254;47.372;8.512;2023-09-12T15:58:46;28.60;1.00
6443;DHT22;3254;47.372;8.512;2023-09-12T16:01:14;28.10;1.00
6443;DHT22;3254;47.372;8.512;2023-09-12T16:03:39;27.60;1.00
6443;DHT22;3254;47.372;8.512;2023-09-12T16:06:09;27.40;1.00
6443;DHT22;3254;47.372;8.512;2023-09-12T16:08:34;27.10;1.00
6443;DHT22;3254;47.372;8.512;2023-09-12T16:11:00;26.80;1.00
6443;DHT22;3254;47.372;8.512;2023-09-12T16:13:25;26.90;1.00
6443;DHT22;3254;47.372;8.512;2023-09-12T16:15:51;26.70;1.00
6443;DHT22;3254;47.372;8.512;2023-09-12T16:18:17;26.80;1.00
6443;DHT22;3254;47.372;8.512;2023-09-12T16:20:42;26.70;1.00
6443;DHT22;3254;47.372;8.512;2023-09-12T16:23:08;26.80;1.00